sensor_id;sensor_type;location;lat;lon;timestamp;noise_LAeq;noise_LA_min;noise_LA_max;noise_LA01;noise_LA95
80864;Laerm;70936;51.680;5.974;2023-07-20T00:03:33;35.57;32.51;39.24;;
80864;Laerm;70936;51.680;5.974;2023-07-20T00:07:33;47.79;32.64;65.4;;
80864;Laerm;70936;51.680;5.974;2023-07-20T00:11:35;35.71;32.74;40.42;;
80864;Laerm;70936;51.680;5.974;2023-07-20T00:15:33;45.24;32.77;66.11;;
80864;Laerm;70936;51.680;5.974;2023-07-20T00:19:33;41.01;33.21;70.57;;
80864;Laerm;70936;51.680;5.974;2023-07-20T00:23:33;42.19;33.19;68.75;;
80864;Laerm;70936;51.680;5.974;2023-07-20T00:27:33;44.46;33.41;67.59;;
80864;Laerm;70936;51.680;5.974;2023-07-20T00:31:33;44.7;32.98;64.12;;
80864;Laerm;70936;51.680;5.974;2023-07-20T00:35:33;47.96;33.2;76.8;;
80864;Laerm;70936;51.680;5.974;2023-07-20T00:39:33;56.77;41.72;78.97;;
80864;Laerm;70936;51.680;5.974;2023-07-20T00:43:33;70.2;48.35;94.59;;
80864;Laerm;70936;51.680;5.974;2023-07-20T00:47:33;74.62;53.72;97.95;;
80864;Laerm;70936;51.680;5.974;2023-07-20T00:51:33;65.83;42.43;89.86;;
80864;Laerm;70936;51.680;5.974;2023-07-20T00:55:33;49.25;39.08;73.67;;
80864;Laerm;70936;51.680;5.974;2023-07-20T00:59:33;40.03;36.69;47.82;;
80864;Laerm;70936;51.680;5.974;2023-07-20T01:03:33;48.43;35.83;72.61;;
80864;Laerm;70936;51.680;5.974;2023-07-20T01:07:34;48.92;37.27;75.13;;
80864;Laerm;70936;51.680;5.974;2023-07-20T01:11:35;62.01;39.84;93.83;;
80864;Laerm;70936;51.680;5.974;2023-07-20T01:15:33;53.72;37.95;80.26;;
80864;Laerm;70936;51.680;5.974;2023-07-20T01:19:33;57.73;38.06;89.81;;
80864;Laerm;70936;51.680;5.974;2023-07-20T01:23:40;51.18;37.07;82.95;;
80864;Laerm;70936;51.680;5.974;2023-07-20T01:27:55;38.98;35.63;44.75;;
80864;Laerm;70936;51.680;5.974;2023-07-20T01:31:33;49.6;34.82;68.35;;
80864;Laerm;70936;51.680;5.974;2023-07-20T01:35:33;37.8;34.08;45.4;;
80864;Laerm;70936;51.680;5.974;2023-07-20T01:39:33;40.24;33.77;57.13;;
80864;Laerm;70936;51.680;5.974;2023-07-20T01:43:33;37.67;33.74;42.23;;
80864;Laerm;70936;51.680;5.974;2023-07-20T01:47:33;37.45;33.67;44.4;;
80864;Laerm;70936;51.680;5.974;2023-07-20T01:51:33;46.02;33.42;64.08;;
80864;Laerm;70936;51.680;5.974;2023-07-20T01:55:33;42.38;33.76;58.7;;
80864;Laerm;70936;51.680;5.974;2023-07-20T01:59:33;38.7;33.26;44.95;;
80864;Laerm;70936;51.680;5.974;2023-07-20T02:03:33;37.46;33.09;43.77;;
80864;Laerm;70936;51.680;5.974;2023-07-20T02:07:33;37.7;33.69;42.62;;
80864;Laerm;70936;51.680;5.974;2023-07-20T02:11:33;37.36;32.91;42.61;;
80864;Laerm;70936;51.680;5.974;2023-07-20T02:15:33;38.21;33.42;47.97;;
80864;Laerm;70936;51.680;5.974;2023-07-20T02:19:33;49.6;33.46;68.61;;
80864;Laerm;70936;51.680;5.974;2023-07-20T02:23:33;46.59;33.08;67.54;;
80864;Laerm;70936;51.680;5.974;2023-07-20T02:27:33;42.6;33.25;57.89;;
80864;Laerm;70936;51.680;5.974;2023-07-20T02:31:33;48.29;33.4;67.56;;
80864;Laerm;70936;51.680;5.974;2023-07-20T02:35:33;46.2;32.97;64.7;;
80864;Laerm;70936;51.680;5.974;2023-07-20T02:39:33;48.4;33.06;66.54;;
80864;Laerm;70936;51.680;5.974;2023-07-20T02:43:33;48.86;33.1;66.53;;
80864;Laerm;70936;51.680;5.974;2023-07-20T02:47:33;37.35;32.52;51.85;;
80864;Laerm;70936;51.680;5.974;2023-07-20T02:51:33;37.28;33.14;43.29;;
80864;Laerm;70936;51.680;5.974;2023-07-20T02:55:33;36.88;32.91;42.39;;
80864;Laerm;70936;51.680;5.974;2023-07-20T02:59:33;49.39;33.47;66;;
80864;Laerm;70936;51.680;5.974;2023-07-20T03:03:33;37.95;33.58;44.81;;
80864;Laerm;70936;51.680;5.974;2023-07-20T03:07:33;45.81;33.95;62.06;;
80864;Laerm;70936;51.680;5.974;2023-07-20T03:11:33;44.63;33.49;62.86;;
80864;Laerm;70936;51.680;5.974;2023-07-20T03:15:34;44.57;33.45;64.42;;
80864;Laerm;70936;51.680;5.974;2023-07-20T03:19:33;48.89;34.25;66.11;;
80864;Laerm;70936;51.680;5.974;2023-07-20T03:23:33;45.1;33.7;61.2;;
80864;Laerm;70936;51.680;5.974;2023-07-20T03:27:33;48.55;34.44;66.09;;
80864;Laerm;70936;51.680;5.974;2023-07-20T03:31:33;48.44;34.37;65.09;;
80864;Laerm;70936;51.680;5.974;2023-07-20T03:35:33;47.55;34.56;66.59;;
80864;Laerm;70936;51.680;5.974;2023-07-20T03:39:33;51.99;35.08;67.99;;
80864;Laerm;70936;51.680;5.974;2023-07-20T03:43:33;49.95;39.62;66.32;;
80864;Laerm;70936;51.680;5.974;2023-07-20T03:47:33;49.03;34.59;64.87;;
80864;Laerm;70936;51.680;5.974;2023-07-20T03:51:33;52.31;34.69;69.99;;
80864;Laerm;70936;51.680;5.974;2023-07-20T03:55:33;54.5;34.11;72.94;;
80864;Laerm;70936;51.680;5.974;2023-07-20T03:59:33;53.09;35.02;68.99;;
80864;Laerm;70936;51.680;5.974;2023-07-20T04:03:33;55.1;35.53;69.4;;
80864;Laerm;70936;51.680;5.974;2023-07-20T04:07:33;53.06;37.38;69.52;;
80864;Laerm;70936;51.680;5.974;2023-07-20T04:11:33;52.83;36.72;66.38;;
80864;Laerm;70936;51.680;5.974;2023-07-20T04:15:33;52.5;36.21;67.04;;
80864;Laerm;70936;51.680;5.974;2023-07-20T04:19:33;55.48;35.47;70.64;;
80864;Laerm;70936;51.680;5.974;2023-07-20T04:23:33;54.93;37.09;71.56;;
80864;Laerm;70936;51.680;5.974;2023-07-20T04:27:33;54.22;35.64;67.47;;
80864;Laerm;70936;51.680;5.974;2023-07-20T04:31:33;52.09;36.85;65.39;;
80864;Laerm;70936;51.680;5.974;2023-07-20T04:35:49;55.71;37.48;69.72;;
80864;Laerm;70936;51.680;5.974;2023-07-20T04:39:33;57.03;38.91;69.85;;
80864;Laerm;70936;51.680;5.974;2023-07-20T04:43:33;59.41;40.97;72.59;;
80864;Laerm;70936;51.680;5.974;2023-07-20T04:47:33;55.18;40.42;67.82;;
80864;Laerm;70936;51.680;5.974;2023-07-20T04:51:33;56.73;41.97;66.82;;
80864;Laerm;70936;51.680;5.974;2023-07-20T04:55:33;57.29;42.55;69.68;;
80864;Laerm;70936;51.680;5.974;2023-07-20T04:59:33;57.9;42.71;68.15;;
80864;Laerm;70936;51.680;5.974;2023-07-20T05:03:33;58.33;41.35;76.13;;
80864;Laerm;70936;51.680;5.974;2023-07-20T05:07:33;59.08;42.37;71.3;;
80864;Laerm;70936;51.680;5.974;2023-07-20T05:11:33;56.87;41.66;72.4;;
80864;Laerm;70936;51.680;5.974;2023-07-20T05:15:33;54.18;42.13;65.21;;
80864;Laerm;70936;51.680;5.974;2023-07-20T05:19:33;56.07;44.81;69.78;;
80864;Laerm;70936;51.680;5.974;2023-07-20T05:23:33;57.63;42.88;69.09;;
80864;Laerm;70936;51.680;5.974;2023-07-20T05:27:33;56.24;42.99;68.84;;
80864;Laerm;70936;51.680;5.974;2023-07-20T05:31:33;55.52;43.38;66.36;;
80864;Laerm;70936;51.680;5.974;2023-07-20T05:35:33;58.74;45.66;68.98;;
80864;Laerm;70936;51.680;5.974;2023-07-20T05:39:33;57.08;46.21;66.97;;
80864;Laerm;70936;51.680;5.974;2023-07-20T05:43:33;57.07;46.04;66.22;;
80864;Laerm;70936;51.680;5.974;2023-07-20T05:47:33;56.41;44.72;68.09;;
80864;Laerm;70936;51.680;5.974;2023-07-20T05:51:33;56.01;43.06;66.32;;
80864;Laerm;70936;51.680;5.974;2023-07-20T05:55:33;57.03;42.57;66.82;;
80864;Laerm;70936;51.680;5.974;2023-07-20T05:59:33;57.17;42.82;70.53;;
80864;Laerm;70936;51.680;5.974;2023-07-20T06:03:33;56.44;44.22;67.26;;
80864;Laerm;70936;51.680;5.974;2023-07-20T06:07:33;56.69;45.48;67.25;;
80864;Laerm;70936;51.680;5.974;2023-07-20T06:11:33;57.37;42.3;68.07;;
80864;Laerm;70936;51.680;5.974;2023-07-20T06:15:33;58.94;48.5;79.24;;
80864;Laerm;70936;51.680;5.974;2023-07-20T06:19:33;61.85;49.44;75.78;;
80864;Laerm;70936;51.680;5.974;2023-07-20T06:23:33;64.17;48.74;79.74;;
80864;Laerm;70936;51.680;5.974;2023-07-20T06:27:33;61.33;50.46;75.48;;
80864;Laerm;70936;51.680;5.974;2023-07-20T06:31:34;60.05;49.66;73.83;;
80864;Laerm;70936;51.680;5.974;2023-07-20T06:35:33;62.39;50.16;79.2;;
80864;Laerm;70936;51.680;5.974;2023-07-20T06:39:33;66.83;50.22;85.41;;
80864;Laerm;70936;51.680;5.974;2023-07-20T06:43:33;63.1;50.25;80.37;;
80864;Laerm;70936;51.680;5.974;2023-07-20T06:47:33;65.6;50.82;88.16;;
80864;Laerm;70936;51.680;5.974;2023-07-20T06:51:33;66.57;51.31;78.83;;
80864;Laerm;70936;51.680;5.974;2023-07-20T06:55:33;61.45;50.36;75.77;;
80864;Laerm;70936;51.680;5.974;2023-07-20T07:03:33;62.06;49.78;80.2;;
80864;Laerm;70936;51.680;5.974;2023-07-20T07:07:33;61.59;46.62;78.19;;
80864;Laerm;70936;51.680;5.974;2023-07-20T07:11:33;60.56;48.26;77.58;;
80864;Laerm;70936;51.680;5.974;2023-07-20T07:15:33;61.4;44.54;82.23;;
80864;Laerm;70936;51.680;5.974;2023-07-20T07:19:33;63.21;46.73;76.95;;
80864;Laerm;70936;51.680;5.974;2023-07-20T07:23:33;60.76;44.5;76.27;;
80864;Laerm;70936;51.680;5.974;2023-07-20T07:27:33;58.46;43.5;71;;
80864;Laerm;70936;51.680;5.974;2023-07-20T07:31:33;56.97;39.62;68.88;;
80864;Laerm;70936;51.680;5.974;2023-07-20T07:35:33;55.18;39.04;69.3;;
80864;Laerm;70936;51.680;5.974;2023-07-20T07:39:33;57.46;40.27;69.54;;
80864;Laerm;70936;51.680;5.974;2023-07-20T07:43:33;55.38;40.95;66.66;;
80864;Laerm;70936;51.680;5.974;2023-07-20T07:47:33;62.22;47.25;81.34;;
80864;Laerm;70936;51.680;5.974;2023-07-20T07:51:33;64.19;47.47;84.22;;
80864;Laerm;70936;51.680;5.974;2023-07-20T07:55:33;64.31;47.61;82.03;;
80864;Laerm;70936;51.680;5.974;2023-07-20T07:59:33;64.4;47.22;82.86;;
80864;Laerm;70936;51.680;5.974;2023-07-20T08:03:33;63.59;48.6;82;;
80864;Laerm;70936;51.680;5.974;2023-07-20T08:07:33;62.15;47.59;80.15;;
80864;Laerm;70936;51.680;5.974;2023-07-20T08:11:33;61.89;47.86;79.48;;
80864;Laerm;70936;51.680;5.974;2023-07-20T08:15:33;61.6;45.62;78.04;;
80864;Laerm;70936;51.680;5.974;2023-07-20T08:19:33;58.15;46.1;70.8;;
80864;Laerm;70936;51.680;5.974;2023-07-20T08:23:33;57.1;46.27;69.62;;
80864;Laerm;70936;51.680;5.974;2023-07-20T08:27:33;56.48;45;70.28;;
80864;Laerm;70936;51.680;5.974;2023-07-20T08:31:33;58.37;45.09;68.15;;
80864;Laerm;70936;51.680;5.974;2023-07-20T08:35:33;57.59;42.65;69.71;;
80864;Laerm;70936;51.680;5.974;2023-07-20T08:39:33;55.52;41.74;68.23;;
80864;Laerm;70936;51.680;5.974;2023-07-20T08:43:33;56.19;42.69;72.84;;
80864;Laerm;70936;51.680;5.974;2023-07-20T08:47:33;54.48;42.41;66;;
80864;Laerm;70936;51.680;5.974;2023-07-20T08:51:33;57.34;43.19;70.75;;
80864;Laerm;70936;51.680;5.974;2023-07-20T08:55:33;57.68;45.79;71.63;;
80864;Laerm;70936;51.680;5.974;2023-07-20T08:59:37;57.56;44.63;76.09;;
80864;Laerm;70936;51.680;5.974;2023-07-20T09:03:33;59.71;43.45;76.89;;
80864;Laerm;70936;51.680;5.974;2023-07-20T09:07:33;58.59;42.69;72.07;;
80864;Laerm;70936;51.680;5.974;2023-07-20T09:11:33;56.06;40.27;67.28;;
80864;Laerm;70936;51.680;5.974;2023-07-20T09:15:33;55.42;42.03;68.09;;
80864;Laerm;70936;51.680;5.974;2023-07-20T09:19:33;54.34;41.45;71.92;;
80864;Laerm;70936;51.680;5.974;2023-07-20T09:23:38;56.34;44.01;68.58;;
80864;Laerm;70936;51.680;5.974;2023-07-20T09:27:35;57.62;42.09;68.8;;
80864;Laerm;70936;51.680;5.974;2023-07-20T09:31:33;58.98;43.22;74.75;;
80864;Laerm;70936;51.680;5.974;2023-07-20T09:35:36;55.04;42.59;66.47;;
80864;Laerm;70936;51.680;5.974;2023-07-20T09:39:35;54.57;42.06;68.51;;
80864;Laerm;70936;51.680;5.974;2023-07-20T09:43:33;56.14;41.31;69.92;;
80864;Laerm;70936;51.680;5.974;2023-07-20T09:47:35;56.22;42.57;68.02;;
80864;Laerm;70936;51.680;5.974;2023-07-20T09:51:33;59.32;43.04;69.59;;
80864;Laerm;70936;51.680;5.974;2023-07-20T09:55:33;58.63;41.24;68.74;;
80864;Laerm;70936;51.680;5.974;2023-07-20T09:59:33;58.45;42.28;73.82;;
80864;Laerm;70936;51.680;5.974;2023-07-20T10:03:33;52.58;42.5;67.89;;
80864;Laerm;70936;51.680;5.974;2023-07-20T10:07:33;57.17;46.37;67.26;;
80864;Laerm;70936;51.680;5.974;2023-07-20T10:11:36;57.63;43.97;68.66;;
80864;Laerm;70936;51.680;5.974;2023-07-20T10:15:35;56.23;44.63;67.02;;
80864;Laerm;70936;51.680;5.974;2023-07-20T10:19:34;60.15;44.03;78.57;;
80864;Laerm;70936;51.680;5.974;2023-07-20T10:23:39;57.96;46.08;70.04;;
80864;Laerm;70936;51.680;5.974;2023-07-20T10:27:33;58.17;44.73;71.36;;
80864;Laerm;70936;51.680;5.974;2023-07-20T10:31:33;57.14;40.5;68.54;;
80864;Laerm;70936;51.680;5.974;2023-07-20T10:35:50;54.69;40.38;67.19;;
80864;Laerm;70936;51.680;5.974;2023-07-20T10:39:33;57.43;39.7;70.45;;
80864;Laerm;70936;51.680;5.974;2023-07-20T10:43:33;52.53;39.48;67.6;;
80864;Laerm;70936;51.680;5.974;2023-07-20T10:47:35;55.91;41;66.8;;
80864;Laerm;70936;51.680;5.974;2023-07-20T10:51:38;55.53;40.03;67.34;;
80864;Laerm;70936;51.680;5.974;2023-07-20T10:55:33;54.75;39.23;66.7;;
80864;Laerm;70936;51.680;5.974;2023-07-20T10:59:36;57.6;41.1;69.84;;
80864;Laerm;70936;51.680;5.974;2023-07-20T11:03:34;56.38;41.29;67.69;;
80864;Laerm;70936;51.680;5.974;2023-07-20T11:07:37;58.95;40.59;72.08;;
80864;Laerm;70936;51.680;5.974;2023-07-20T11:11:37;56.56;39.73;74.28;;
80864;Laerm;70936;51.680;5.974;2023-07-20T11:15:44;56.63;39.35;66.11;;
80864;Laerm;70936;51.680;5.974;2023-07-20T11:19:33;57.32;41.02;70.61;;
80864;Laerm;70936;51.680;5.974;2023-07-20T11:23:33;58.17;42.03;73.59;;
80864;Laerm;70936;51.680;5.974;2023-07-20T11:27:33;59.23;41.64;77.72;;
80864;Laerm;70936;51.680;5.974;2023-07-20T11:31:36;55.66;44.06;67.08;;
80864;Laerm;70936;51.680;5.974;2023-07-20T11:35:34;56.88;45.22;71.21;;
80864;Laerm;70936;51.680;5.974;2023-07-20T11:39:33;58.35;44.81;69.67;;
80864;Laerm;70936;51.680;5.974;2023-07-20T11:43:39;56.92;43.28;69.04;;
80864;Laerm;70936;51.680;5.974;2023-07-20T11:47:33;55.9;43.22;67.15;;
80864;Laerm;70936;51.680;5.974;2023-07-20T11:51:33;58.02;42.42;74.51;;
80864;Laerm;70936;51.680;5.974;2023-07-20T11:55:33;56.52;42.6;69.92;;
80864;Laerm;70936;51.680;5.974;2023-07-20T11:59:33;55.14;42.23;67.77;;
80864;Laerm;70936;51.680;5.974;2023-07-20T12:03:35;56.91;44.57;71.41;;
80864;Laerm;70936;51.680;5.974;2023-07-20T12:07:35;57;42.5;72.61;;
80864;Laerm;70936;51.680;5.974;2023-07-20T12:11:37;58.34;43.17;68.03;;
80864;Laerm;70936;51.680;5.974;2023-07-20T12:15:36;59.67;43.04;77.3;;
80864;Laerm;70936;51.680;5.974;2023-07-20T12:19:37;56.36;42.44;76.41;;
80864;Laerm;70936;51.680;5.974;2023-07-20T12:23:35;58.3;44.98;68.54;;
80864;Laerm;70936;51.680;5.974;2023-07-20T12:27:35;57.49;43.77;68.53;;
80864;Laerm;70936;51.680;5.974;2023-07-20T12:31:34;57.98;43.5;76.94;;
80864;Laerm;70936;51.680;5.974;2023-07-20T12:35:34;57.88;45.09;70.23;;
80864;Laerm;70936;51.680;5.974;2023-07-20T12:39:33;58.27;42.36;74;;
80864;Laerm;70936;51.680;5.974;2023-07-20T12:43:33;57.22;43.95;69.13;;
80864;Laerm;70936;51.680;5.974;2023-07-20T12:47:35;56.97;41.88;71.52;;
80864;Laerm;70936;51.680;5.974;2023-07-20T12:51:33;55.28;41.28;66.19;;
80864;Laerm;70936;51.680;5.974;2023-07-20T12:55:33;56.84;38.53;76.34;;
80864;Laerm;70936;51.680;5.974;2023-07-20T12:59:34;55.56;38.64;70.88;;
80864;Laerm;70936;51.680;5.974;2023-07-20T13:03:33;56.58;37.61;67.39;;
80864;Laerm;70936;51.680;5.974;2023-07-20T13:07:34;55;40.8;68.24;;
80864;Laerm;70936;51.680;5.974;2023-07-20T13:11:33;53.99;39.99;65.91;;
80864;Laerm;70936;51.680;5.974;2023-07-20T13:15:40;54.56;38.66;70.02;;
80864;Laerm;70936;51.680;5.974;2023-07-20T13:19:33;55.78;39.37;68.25;;
80864;Laerm;70936;51.680;5.974;2023-07-20T13:23:33;54.89;40.4;69.25;;
80864;Laerm;70936;51.680;5.974;2023-07-20T13:27:33;55.6;39.96;67.02;;
80864;Laerm;70936;51.680;5.974;2023-07-20T13:31:33;56.02;44.75;71.8;;
80864;Laerm;70936;51.680;5.974;2023-07-20T13:35:33;57.12;44.58;69.94;;
80864;Laerm;70936;51.680;5.974;2023-07-20T13:39:33;58.34;42.87;74.41;;
80864;Laerm;70936;51.680;5.974;2023-07-20T13:43:33;55.91;43.62;67.52;;
80864;Laerm;70936;51.680;5.974;2023-07-20T13:47:33;55.41;42.95;67.91;;
80864;Laerm;70936;51.680;5.974;2023-07-20T13:51:33;56.82;43.43;69.35;;
80864;Laerm;70936;51.680;5.974;2023-07-20T13:59:33;57.45;42.81;71.88;;
80864;Laerm;70936;51.680;5.974;2023-07-20T14:03:33;56.88;45.27;65.77;;
80864;Laerm;70936;51.680;5.974;2023-07-20T14:07:36;56.42;40.72;68.42;;
80864;Laerm;70936;51.680;5.974;2023-07-20T14:11:33;57.66;41.64;71.25;;
80864;Laerm;70936;51.680;5.974;2023-07-20T14:15:34;57.74;42.78;68.5;;
80864;Laerm;70936;51.680;5.974;2023-07-20T14:19:37;56.65;41.67;68.14;;
80864;Laerm;70936;51.680;5.974;2023-07-20T14:23:33;55.54;43.52;72.47;;
80864;Laerm;70936;51.680;5.974;2023-07-20T14:27:33;54.47;42.68;65.21;;
80864;Laerm;70936;51.680;5.974;2023-07-20T14:31:36;53.7;41.32;64.46;;
80864;Laerm;70936;51.680;5.974;2023-07-20T14:35:33;57.46;41.63;69.31;;
80864;Laerm;70936;51.680;5.974;2023-07-20T14:39:33;54.34;38.3;68.84;;
80864;Laerm;70936;51.680;5.974;2023-07-20T14:43:34;58.24;42.52;74.08;;
80864;Laerm;70936;51.680;5.974;2023-07-20T14:47:33;55.12;39.4;66.16;;
80864;Laerm;70936;51.680;5.974;2023-07-20T14:51:33;56.8;39.33;67.69;;
80864;Laerm;70936;51.680;5.974;2023-07-20T14:55:37;52.77;37.65;65.64;;
80864;Laerm;70936;51.680;5.974;2023-07-20T14:59:33;55.87;38.93;69.62;;
80864;Laerm;70936;51.680;5.974;2023-07-20T15:03:33;54.83;39.38;64.88;;
80864;Laerm;70936;51.680;5.974;2023-07-20T15:07:33;54.77;40.36;65.19;;
80864;Laerm;70936;51.680;5.974;2023-07-20T15:11:36;56.28;41.38;66.33;;
80864;Laerm;70936;51.680;5.974;2023-07-20T15:15:35;56.27;40.55;69.98;;
80864;Laerm;70936;51.680;5.974;2023-07-20T15:19:33;55.57;40.82;66.86;;
80864;Laerm;70936;51.680;5.974;2023-07-20T15:23:38;55.33;39.2;68.03;;
80864;Laerm;70936;51.680;5.974;2023-07-20T15:27:34;55.13;38.18;67.68;;
80864;Laerm;70936;51.680;5.974;2023-07-20T15:31:33;53.62;37.31;68.05;;
80864;Laerm;70936;51.680;5.974;2023-07-20T15:35:36;53.7;35.87;77.23;;
80864;Laerm;70936;51.680;5.974;2023-07-20T15:39:33;55.12;36.4;65.36;;
80864;Laerm;70936;51.680;5.974;2023-07-20T15:43:33;53.26;37.8;67.55;;
80864;Laerm;70936;51.680;5.974;2023-07-20T15:47:37;52.81;38.26;67.64;;
80864;Laerm;70936;51.680;5.974;2023-07-20T15:51:34;55.73;39.17;74.67;;
80864;Laerm;70936;51.680;5.974;2023-07-20T15:55:33;52;35.73;64.98;;
80864;Laerm;70936;51.680;5.974;2023-07-20T15:59:34;53.68;36.25;66.99;;
80864;Laerm;70936;51.680;5.974;2023-07-20T16:03:33;52.64;36.02;68.15;;
80864;Laerm;70936;51.680;5.974;2023-07-20T16:07:33;52.23;36.92;63.62;;
80864;Laerm;70936;51.680;5.974;2023-07-20T16:11:34;54.36;36.52;66.57;;
80864;Laerm;70936;51.680;5.974;2023-07-20T16:15:33;54.95;36.43;68.8;;
80864;Laerm;70936;51.680;5.974;2023-07-20T16:19:33;54;36.6;67.57;;
80864;Laerm;70936;51.680;5.974;2023-07-20T16:23:34;52.41;36.69;68.7;;
80864;Laerm;70936;51.680;5.974;2023-07-20T16:27:33;51.67;36.04;66.38;;
80864;Laerm;70936;51.680;5.974;2023-07-20T16:31:34;51.41;36.03;62.23;;
80864;Laerm;70936;51.680;5.974;2023-07-20T16:35:36;53.97;37.66;66.92;;
80864;Laerm;70936;51.680;5.974;2023-07-20T16:39:33;54.26;39.04;65.74;;
80864;Laerm;70936;51.680;5.974;2023-07-20T16:43:33;55.64;37.77;67.65;;
80864;Laerm;70936;51.680;5.974;2023-07-20T16:47:33;50.58;36.68;62.16;;
80864;Laerm;70936;51.680;5.974;2023-07-20T16:51:34;51.88;35.66;66.18;;
80864;Laerm;70936;51.680;5.974;2023-07-20T16:55:38;56.3;35.39;70.44;;
80864;Laerm;70936;51.680;5.974;2023-07-20T16:59:33;51.96;35.09;64.42;;
80864;Laerm;70936;51.680;5.974;2023-07-20T17:03:33;52.74;35.26;66.54;;
80864;Laerm;70936;51.680;5.974;2023-07-20T17:07:35;52.44;34.46;65.52;;
80864;Laerm;70936;51.680;5.974;2023-07-20T17:11:33;52.68;35.66;66;;
80864;Laerm;70936;51.680;5.974;2023-07-20T17:15:34;48.83;34.43;63.41;;
80864;Laerm;70936;51.680;5.974;2023-07-20T17:19:33;51.68;34.1;64.87;;
80864;Laerm;70936;51.680;5.974;2023-07-20T17:23:33;52.64;34.83;64.29;;
80864;Laerm;70936;51.680;5.974;2023-07-20T17:27:38;53.74;34.9;65.97;;
80864;Laerm;70936;51.680;5.974;2023-07-20T17:31:33;50.73;35.23;66.23;;
80864;Laerm;70936;51.680;5.974;2023-07-20T17:35:33;50.74;36.28;63.47;;
80864;Laerm;70936;51.680;5.974;2023-07-20T17:39:36;53.66;38.92;65.47;;
80864;Laerm;70936;51.680;5.974;2023-07-20T17:43:34;51.94;36.59;64.85;;
80864;Laerm;70936;51.680;5.974;2023-07-20T17:47:33;50.13;37.07;65.37;;
80864;Laerm;70936;51.680;5.974;2023-07-20T17:51:34;50.21;38.03;64.39;;
80864;Laerm;70936;51.680;5.974;2023-07-20T17:55:34;58.19;36.38;77.32;;
80864;Laerm;70936;51.680;5.974;2023-07-20T17:59:34;49.25;36.45;64.2;;
80864;Laerm;70936;51.680;5.974;2023-07-20T18:03:37;51.64;40.62;63.4;;
80864;Laerm;70936;51.680;5.974;2023-07-20T18:07:33;55.22;42.39;69.71;;
80864;Laerm;70936;51.680;5.974;2023-07-20T18:11:33;54.23;40.02;66.04;;
80864;Laerm;70936;51.680;5.974;2023-07-20T18:15:37;50.46;39.1;65.3;;
80864;Laerm;70936;51.680;5.974;2023-07-20T18:19:33;51.74;38.19;69.79;;
80864;Laerm;70936;51.680;5.974;2023-07-20T18:23:33;50.61;38.32;70.7;;
80864;Laerm;70936;51.680;5.974;2023-07-20T18:27:33;51.07;37.46;66.68;;
80864;Laerm;70936;51.680;5.974;2023-07-20T18:31:33;52.63;37.23;68.81;;
80864;Laerm;70936;51.680;5.974;2023-07-20T18:35:36;51.87;37.24;64.47;;
80864;Laerm;70936;51.680;5.974;2023-07-20T18:39:33;50.3;37.29;66.18;;
80864;Laerm;70936;51.680;5.974;2023-07-20T18:43:34;50.75;37.65;67.04;;
80864;Laerm;70936;51.680;5.974;2023-07-20T18:47:40;48.72;36.89;66.15;;
80864;Laerm;70936;51.680;5.974;2023-07-20T18:51:33;49.7;36.77;66.89;;
80864;Laerm;70936;51.680;5.974;2023-07-20T18:55:34;53.51;36.63;75.29;;
80864;Laerm;70936;51.680;5.974;2023-07-20T18:59:35;50.24;35.34;64.17;;
80864;Laerm;70936;51.680;5.974;2023-07-20T19:03:33;48.74;35.69;63.37;;
80864;Laerm;70936;51.680;5.974;2023-07-20T19:07:33;52.32;35.19;68.23;;
80864;Laerm;70936;51.680;5.974;2023-07-20T19:11:37;48.81;35.56;64.45;;
80864;Laerm;70936;51.680;5.974;2023-07-20T19:15:33;46.34;34.88;63.22;;
80864;Laerm;70936;51.680;5.974;2023-07-20T19:19:34;51.7;34.74;65.47;;
80864;Laerm;70936;51.680;5.974;2023-07-20T19:23:35;50.72;35.5;67.34;;
80864;Laerm;70936;51.680;5.974;2023-07-20T19:27:33;54.36;35.14;80.89;;
80864;Laerm;70936;51.680;5.974;2023-07-20T19:31:34;58.82;40.5;86.19;;
80864;Laerm;70936;51.680;5.974;2023-07-20T19:35:36;55.05;43.49;79.13;;
80864;Laerm;70936;51.680;5.974;2023-07-20T19:39:33;56.5;44.18;77.97;;
80864;Laerm;70936;51.680;5.974;2023-07-20T19:43:34;54.06;41.13;73.3;;
80864;Laerm;70936;51.680;5.974;2023-07-20T19:47:36;53.99;38.03;67.56;;
80864;Laerm;70936;51.680;5.974;2023-07-20T19:51:34;51.86;36.17;67.15;;
80864;Laerm;70936;51.680;5.974;2023-07-20T19:55:33;50.53;36.92;66.33;;
80864;Laerm;70936;51.680;5.974;2023-07-20T19:59:37;54.49;35.94;73.31;;
80864;Laerm;70936;51.680;5.974;2023-07-20T20:03:34;58.53;38.05;78.1;;
80864;Laerm;70936;51.680;5.974;2023-07-20T20:07:34;57.5;36.84;71.93;;
80864;Laerm;70936;51.680;5.974;2023-07-20T20:11:34;53.21;37.19;68.08;;
80864;Laerm;70936;51.680;5.974;2023-07-20T20:15:33;47.82;35.76;65.64;;
80864;Laerm;70936;51.680;5.974;2023-07-20T20:19:34;47.01;35.49;63.91;;
80864;Laerm;70936;51.680;5.974;2023-07-20T20:23:35;53.21;36.17;72.78;;
80864;Laerm;70936;51.680;5.974;2023-07-20T20:27:33;42.19;33.7;61.18;;
80864;Laerm;70936;51.680;5.974;2023-07-20T20:31:34;53.22;33.64;74.64;;
80864;Laerm;70936;51.680;5.974;2023-07-20T20:35:34;46.28;34.5;61.71;;
80864;Laerm;70936;51.680;5.974;2023-07-20T20:39:34;50.34;35.29;66.2;;
80864;Laerm;70936;51.680;5.974;2023-07-20T20:43:34;42.45;35.77;60.85;;
80864;Laerm;70936;51.680;5.974;2023-07-20T20:47:35;39.02;35.84;43.53;;
80864;Laerm;70936;51.680;5.974;2023-07-20T20:51:34;47.45;35.98;67.16;;
80864;Laerm;70936;51.680;5.974;2023-07-20T20:55:34;44.82;34.54;61.57;;
80864;Laerm;70936;51.680;5.974;2023-07-20T20:59:34;42.34;36.09;58.01;;
80864;Laerm;70936;51.680;5.974;2023-07-20T21:03:34;52.15;36.39;69.5;;
80864;Laerm;70936;51.680;5.974;2023-07-20T21:07:34;44.25;35.04;62.6;;
80864;Laerm;70936;51.680;5.974;2023-07-20T21:11:34;42.34;34.98;60.93;;
80864;Laerm;70936;51.680;5.974;2023-07-20T21:15:34;44.03;34.79;61.65;;
80864;Laerm;70936;51.680;5.974;2023-07-20T21:19:34;49.26;35.09;69.36;;
80864;Laerm;70936;51.680;5.974;2023-07-20T21:23:34;48.99;36.08;66.27;;
80864;Laerm;70936;51.680;5.974;2023-07-20T21:27:34;45.97;36.42;63.51;;
80864;Laerm;70936;51.680;5.974;2023-07-20T21:31:34;48.11;36.53;66.33;;
80864;Laerm;70936;51.680;5.974;2023-07-20T21:35:35;47.19;36.56;66.2;;
80864;Laerm;70936;51.680;5.974;2023-07-20T21:39:34;47.44;36.46;66.6;;
80864;Laerm;70936;51.680;5.974;2023-07-20T21:43:34;48.6;36.05;63.54;;
80864;Laerm;70936;51.680;5.974;2023-07-20T21:47:34;44.42;35.79;65.17;;
80864;Laerm;70936;51.680;5.974;2023-07-20T21:51:34;44.18;35.81;63.15;;
80864;Laerm;70936;51.680;5.974;2023-07-20T21:55:34;44.82;35.48;62.63;;
80864;Laerm;70936;51.680;5.974;2023-07-20T21:59:37;39.9;35.52;48.85;;
80864;Laerm;70936;51.680;5.974;2023-07-20T22:03:34;47.55;35.88;65.05;;
80864;Laerm;70936;51.680;5.974;2023-07-20T22:07:34;42.84;35.68;60.46;;
80864;Laerm;70936;51.680;5.974;2023-07-20T22:11:34;47.13;34.99;62.47;;
80864;Laerm;70936;51.680;5.974;2023-07-20T22:15:34;42.15;34.59;59.42;;
80864;Laerm;70936;51.680;5.974;2023-07-20T22:19:34;37.59;34.06;41.64;;
80864;Laerm;70936;51.680;5.974;2023-07-20T22:23:35;41.94;34.24;57.81;;
80864;Laerm;70936;51.680;5.974;2023-07-20T22:27:35;47.54;34.35;64.1;;
80864;Laerm;70936;51.680;5.974;2023-07-20T22:31:34;44.61;33.78;61.69;;
80864;Laerm;70936;51.680;5.974;2023-07-20T22:35:36;49.99;34;68.54;;
80864;Laerm;70936;51.680;5.974;2023-07-20T22:39:34;40.72;34.93;55.73;;